Time;durP1;ratioP1;P1;durP2;ratioP2;P2;SDS_P1;SDS_P2;PMS_P1;PMS_P2;Temp;Humidity;BMP_temperature;BMP_pressure;BME280_temperature;BME280_humidity;BME280_pressure;Samples;Min_cycle;Max_cycle;Signal;HPM_P1;HPM_P2
2021/08/15 00:01:24;;;;;;;14.57;8.95;;;588.90;2432.00;;;;;;5009234;28;20140;-79
2021/08/15 00:03:51;;;;;;;14.27;8.70;;;589.00;2432.00;;;;;;5016801;28;20068;-79
2021/08/15 00:06:17;;;;;;;22.63;11.23;;;588.80;2432.00;;;;;;5016789;28;20017;-79
2021/08/15 00:08:46;;;;;;;16.33;9.10;;;588.80;2432.00;;;;;;5016651;28;20085;-78
2021/08/15 00:11:12;;;;;;;16.25;8.57;;;564.10;2432.00;;;;;;5016035;28;20028;-78
2021/08/15 00:13:38;;;;;;;16.25;8.82;;;564.10;2432.00;;;;;;5017745;28;20093;-78
2021/08/15 00:16:04;;;;;;;10.85;8.50;;;564.10;2432.00;;;;;;5021565;28;20033;-79
2021/08/15 00:18:30;;;;;;;14.10;8.70;;;564.10;2432.00;;;;;;5007351;28;20558;-82
2021/08/15 00:20:56;;;;;;;11.32;9.00;;;564.10;2432.00;;;;;;4999528;28;20108;-81
2021/08/15 00:23:21;;;;;;;11.30;7.95;;;564.10;2432.00;;;;;;4999122;28;20034;-83
2021/08/15 00:25:47;;;;;;;12.70;8.40;;;564.10;2432.00;;;;;;4998675;28;20087;-82
2021/08/15 00:28:13;;;;;;;12.55;9.20;;;564.10;2432.00;;;;;;4998995;28;20022;-82
2021/08/15 00:30:39;;;;;;;12.57;8.25;;;564.00;2432.00;;;;;;4998991;28;20112;-81
2021/08/15 00:33:05;;;;;;;16.10;9.52;;;564.10;2432.00;;;;;;5016466;28;20088;-81
2021/08/15 00:35:31;;;;;;;10.15;8.60;;;564.10;2432.00;;;;;;4998757;28;20045;-82
2021/08/15 00:37:56;;;;;;;12.07;8.07;;;563.90;2432.00;;;;;;4997519;28;20032;-81
2021/08/15 00:40:22;;;;;;;10.90;8.10;;;564.00;2432.00;;;;;;4997497;28;20518;-82
2021/08/15 00:42:48;;;;;;;11.95;8.85;;;563.90;2432.00;;;;;;5015156;28;20112;-81
2021/08/15 00:45:14;;;;;;;11.38;8.68;;;563.90;2432.00;;;;;;4997452;28;20463;-81
2021/08/15 00:47:40;;;;;;;10.30;8.13;;;563.90;2432.00;;;;;;4997143;28;20470;-82
2021/08/15 00:50:06;;;;;;;10.55;9.07;;;564.00;2432.00;;;;;;4997375;28;20026;-82
2021/08/15 00:52:32;;;;;;;10.82;8.27;;;563.90;2432.00;;;;;;5014883;28;20024;-83
2021/08/15 00:54:59;;;;;;;8.85;7.63;;;563.90;2432.00;;;;;;4997392;28;20396;-81
2021/08/15 00:57:31;;;;;;;9.48;8.48;;;563.60;2432.00;;;;;;4997502;28;20025;-82
2021/08/15 00:59:59;;;;;;;;;;;564.00;2432.00;;;;;;4997735;28;20022;-83
2021/08/15 01:02:25;;;;;;;10.95;8.02;;;564.10;2432.00;;;;;;5014673;28;20394;-81
2021/08/15 01:04:52;;;;;;;10.85;7.78;;;564.10;2432.00;;;;;;4996955;28;20017;-83
2021/08/15 01:07:18;;;;;;;11.50;8.05;;;564.10;2432.00;;;;;;4996903;28;20025;-81
2021/08/15 01:09:44;;;;;;;12.43;8.35;;;564.10;2432.00;;;;;;5014473;28;20025;-82
2021/08/15 01:12:12;;;;;;;13.63;9.10;;;563.90;2432.00;;;;;;4997016;28;20018;-82
2021/08/15 01:14:37;;;;;;;11.93;8.10;;;563.70;2432.00;;;;;;4996458;28;20056;-82
2021/08/15 01:17:03;;;;;;;14.20;8.05;;;563.80;2432.00;;;;;;4996842;28;20060;-81
2021/08/15 01:19:32;;;;;;;12.27;8.02;;;563.70;2432.00;;;;;;4996616;28;20025;-82
2021/08/15 01:21:59;;;;;;;14.00;8.55;;;563.70;2432.00;;;;;;4996649;28;20026;-82
2021/08/15 01:24:27;;;;;;;12.60;7.90;;;563.50;2432.00;;;;;;4996903;28;20119;-82
2021/08/15 01:26:54;;;;;;;13.00;7.78;;;563.20;2432.00;;;;;;4996738;28;20029;-82
2021/08/15 01:29:22;;;;;;;15.60;9.10;;;538.50;2406.40;;;;;;4996718;28;20033;-81
2021/08/15 01:31:49;;;;;;;9.40;8.35;;;563.30;2432.00;;;;;;4996695;28;20022;-81
2021/08/15 01:34:15;;;;;;;11.20;9.32;;;563.50;2432.00;;;;;;5013992;28;20420;-81
2021/08/15 01:36:41;;;;;;;13.63;8.60;;;563.40;2432.00;;;;;;4996655;28;20037;-83
2021/08/15 01:39:07;;;;;;;13.88;8.82;;;563.30;2432.00;;;;;;4996802;28;20447;-80
2021/08/15 01:41:32;;;;;;;12.45;9.48;;;563.30;2432.00;;;;;;4996822;28;20033;-82
2021/08/15 01:44:01;;;;;;;14.35;8.85;;;538.50;2406.40;;;;;;5014280;28;20026;-84
2021/08/15 01:46:28;;;;;;;14.55;8.27;;;563.20;2432.00;;;;;;4996509;28;20068;-84
2021/08/15 01:48:55;;;;;;;15.90;9.02;;;563.20;2432.00;;;;;;4996119;28;20369;-83
2021/08/15 01:51:21;;;;;;;11.60;7.97;;;563.20;2432.00;;;;;;4996568;28;20410;-81
2021/08/15 01:53:50;;;;;;;10.77;8.35;;;563.20;2432.00;;;;;;4996547;28;20025;-80
2021/08/15 01:56:16;;;;;;;11.63;8.80;;;563.20;2432.00;;;;;;4996589;28;20049;-81
2021/08/15 01:58:42;;;;;;;12.77;8.25;;;563.20;2432.00;;;;;;4996493;28;20455;-82
2021/08/15 02:01:08;;;;;;;12.98;7.95;;;538.50;2406.40;;;;;;4996322;28;20033;-81
2021/08/15 02:03:37;;;;;;;13.93;7.88;;;538.50;2406.40;;;;;;4996308;28;20184;-81
2021/08/15 02:06:04;;;;;;;10.27;8.20;;;538.40;2406.40;;;;;;4996565;28;20029;-81
2021/08/15 02:08:30;;;;;;;13.25;9.05;;;563.20;2432.00;;;;;;4996567;28;20018;-81
2021/08/15 02:10:55;;;;;;;12.52;7.90;;;563.20;2432.00;;;;;;4996211;28;20029;-83
2021/08/15 02:13:21;;;;;;;12.25;8.10;;;538.50;2406.40;;;;;;4996373;28;20030;-81
2021/08/15 02:15:47;;;;;;;11.45;8.45;;;538.30;2406.40;;;;;;4996455;28;20030;-81
2021/08/15 02:18:13;;;;;;;10.57;7.85;;;538.10;2406.40;;;;;;4995956;28;20498;-82
2021/08/15 02:20:39;;;;;;;10.38;8.13;;;538.20;2406.40;;;;;;4996305;28;20022;-82
2021/08/15 02:23:05;;;;;;;13.02;8.57;;;538.40;2406.40;;;;;;4996262;28;20038;-83
2021/08/15 02:25:30;;;;;;;8.88;7.47;;;538.40;2406.40;;;;;;5014195;28;20022;-81
2021/08/15 02:27:56;;;;;;;12.98;8.45;;;538.40;2406.40;;;;;;5013912;28;20022;-81
2021/08/15 02:30:24;;;;;;;15.68;8.55;;;538.30;2406.40;;;;;;4996202;28;20022;-80
2021/08/15 02:32:51;;;;;;;12.65;8.40;;;538.10;2406.40;;;;;;4996455;28;20030;-81
2021/08/15 02:35:17;;;;;;;14.68;8.18;;;538.10;2406.40;;;;;;4999923;28;20045;-81
2021/08/15 02:37:50;;;;;;;12.05;8.02;;;538.20;2406.40;;;;;;4999743;28;20022;-81
2021/08/15 02:40:17;;;;;;;11.88;8.35;;;538.30;2406.40;;;;;;4999809;28;20040;-82
2021/08/15 02:42:44;;;;;;;10.90;8.30;;;;;;;;;;4999871;28;20021;-82
2021/08/15 02:45:12;;;;;;;12.50;7.80;;;538.20;2406.40;;;;;;4999673;28;20014;-83
2021/08/15 02:47:39;;;;;;;15.25;8.88;;;538.10;2406.40;;;;;;4999554;28;20045;-83
2021/08/15 02:50:05;;;;;;;13.25;8.07;;;538.00;2406.40;;;;;;4999672;28;20116;-81
2021/08/15 02:52:31;;;;;;;10.45;8.05;;;538.30;2406.40;;;;;;4999042;28;20026;-81
2021/08/15 02:54:57;;;;;;;11.98;7.75;;;538.20;2406.40;;;;;;4999659;28;20367;-82
2021/08/15 02:57:23;;;;;;;13.63;8.20;;;538.00;2406.40;;;;;;4999424;28;20021;-81
2021/08/15 02:59:49;;;;;;;9.95;8.15;;;538.10;2406.40;;;;;;4999281;28;20033;-82
2021/08/15 03:02:16;;;;;;;15.65;8.27;;;538.20;2406.40;;;;;;5017180;28;20018;-83
2021/08/15 03:04:44;;;;;;;10.57;7.70;;;538.00;2406.40;;;;;;4999436;28;20053;-83
2021/08/15 03:07:10;;;;;;;14.65;9.20;;;538.00;2406.40;;;;;;4999341;28;20026;-83
2021/08/15 03:09:36;;;;;;;15.80;8.52;;;537.70;2406.40;;;;;;4999715;28;20109;-83
2021/08/15 03:12:03;;;;;;;12.35;8.00;;;537.90;2406.40;;;;;;4999371;28;20057;-81
2021/08/15 03:14:28;;;;;;;11.20;8.27;;;537.90;2406.40;;;;;;4999231;28;20029;-81
2021/08/15 03:16:54;;;;;;;11.40;7.88;;;538.00;2406.40;;;;;;4999265;28;20021;-82
2021/08/15 03:19:20;;;;;;;10.23;7.78;;;538.00;2406.40;;;;;;4999035;28;20037;-80
2021/08/15 03:21:46;;;;;;;12.18;7.82;;;538.10;2406.40;;;;;;4998921;28;20022;-82
2021/08/15 03:24:12;;;;;;;9.65;7.60;;;538.20;2406.40;;;;;;4999071;28;20072;-81
2021/08/15 03:26:41;;;;;;;9.55;6.88;;;538.20;2406.40;;;;;;4999023;28;20022;-81
2021/08/15 03:29:07;;;;;;;10.93;7.80;;;538.20;2406.40;;;;;;4998991;28;20375;-82
2021/08/15 03:31:33;;;;;;;10.48;8.75;;;538.30;2406.40;;;;;;4999118;28;20045;-81
2021/08/15 03:33:59;;;;;;;10.73;8.02;;;538.20;2406.40;;;;;;5016177;28;20701;-81
2021/08/15 03:36:25;;;;;;;11.20;8.35;;;538.30;2406.40;;;;;;4998969;28;20038;-81
2021/08/15 03:38:51;;;;;;;11.13;7.97;;;538.20;2406.40;;;;;;4998779;28;20018;-80
2021/08/15 03:41:16;;;;;;;10.23;8.00;;;538.30;2406.40;;;;;;4998645;28;20506;-84
2021/08/15 03:43:42;;;;;;;9.13;7.20;;;538.30;2406.40;;;;;;4998851;28;20482;-83
2021/08/15 03:46:08;;;;;;;10.27;7.32;;;538.40;2406.40;;;;;;4997654;28;20025;-83
2021/08/15 03:48:34;;;;;;;11.30;7.50;;;538.40;2406.40;;;;;;4998015;28;20103;-81
2021/08/15 03:50:59;;;;;;;10.48;8.27;;;538.30;2406.40;;;;;;4998864;28;20029;-81
2021/08/15 03:53:25;;;;;;;14.82;10.43;;;538.20;2406.40;;;;;;4998470;28;20029;-83
2021/08/15 03:55:51;;;;;;;12.23;9.13;;;537.70;2406.40;;;;;;4998366;28;20057;-81
2021/08/15 03:58:17;;;;;;;13.00;8.60;;;512.90;2380.80;;;;;;4998528;28;20026;-82
2021/08/15 04:00:43;;;;;;;11.25;8.20;;;512.60;2380.80;;;;;;4998482;28;20026;-82
2021/08/15 04:03:10;;;;;;;11.15;9.32;;;512.70;2380.80;;;;;;5015746;28;20030;-83
2021/08/15 04:05:36;;;;;;;14.50;9.50;;;512.30;2380.80;;;;;;5015504;28;20028;-83
2021/08/15 04:08:05;;;;;;;14.15;8.90;;;512.20;2380.80;;;;;;4997957;28;20116;-83
2021/08/15 04:10:30;;;;;;;15.10;9.88;;;512.50;2380.80;;;;;;4998237;28;20121;-82
2021/08/15 04:12:56;;;;;;;12.10;9.68;;;512.20;2380.80;;;;;;4998031;28;20108;-82
2021/08/15 04:15:22;;;;;;;12.10;8.65;;;512.60;2380.80;;;;;;4997872;28;20061;-83
2021/08/15 04:17:48;;;;;;;11.35;8.43;;;512.40;2380.80;;;;;;4997937;28;20028;-82
2021/08/15 04:20:14;;;;;;;12.43;8.43;;;512.70;2380.80;;;;;;5015793;28;20026;-82
2021/08/15 04:22:39;;;;;;;13.38;8.90;;;512.70;2380.80;;;;;;4997582;28;20032;-84
2021/08/15 04:25:06;;;;;;;11.65;8.98;;;512.80;2380.80;;;;;;4997905;28;20029;-83
2021/08/15 04:27:32;;;;;;;11.85;8.77;;;512.90;2380.80;;;;;;4997792;28;20048;-82
2021/08/15 04:29:58;;;;;;;11.85;8.00;;;512.90;2380.80;;;;;;4997808;28;20022;-82
2021/08/15 04:32:24;;;;;;;11.65;9.38;;;537.70;2406.40;;;;;;4997910;28;20110;-84
2021/08/15 04:34:50;;;;;;;10.05;8.32;;;537.60;2406.40;;;;;;4997538;28;20124;-84
2021/08/15 04:37:18;;;;;;;12.80;8.65;;;537.60;2406.40;;;;;;4997440;28;20443;-82
2021/08/15 04:39:45;;;;;;;14.20;9.23;;;537.60;2406.40;;;;;;4997529;28;20076;-82
2021/08/15 04:42:11;;;;;;;14.88;8.90;;;537.60;2406.40;;;;;;4997696;28;20022;-81
2021/08/15 04:44:37;;;;;;;11.55;8.68;;;537.60;2406.40;;;;;;4997337;28;20026;-83
2021/08/15 04:47:03;;;;;;;11.75;8.93;;;537.60;2406.40;;;;;;4997112;28;20026;-82
2021/08/15 04:49:29;;;;;;;17.00;10.43;;;512.90;2380.80;;;;;;4997435;28;20022;-84
2021/08/15 04:51:55;;;;;;;11.98;8.45;;;512.90;2380.80;;;;;;4997420;28;20471;-83
2021/08/15 04:54:26;;;;;;;9.80;8.10;;;537.70;2406.40;;;;;;4997108;28;20522;-81
2021/08/15 04:56:52;;;;;;;12.73;8.57;;;512.90;2380.80;;;;;;4997026;28;20048;-82
2021/08/15 04:59:18;;;;;;;13.52;8.45;;;537.60;2406.40;;;;;;4997645;28;20026;-83
2021/08/15 05:01:44;;;;;;;12.48;8.90;;;537.60;2406.40;;;;;;5014717;28;20060;-83
2021/08/15 05:04:10;;;;;;;12.48;9.45;;;537.60;2406.40;;;;;;4997029;28;20025;-83
2021/08/15 05:06:35;;;;;;;14.27;9.27;;;537.60;2406.40;;;;;;4997134;28;20033;-83
2021/08/15 05:09:02;;;;;;;11.45;8.80;;;512.90;2380.80;;;;;;4997335;28;20021;-82
2021/08/15 05:11:28;;;;;;;16.65;10.27;;;537.60;2406.40;;;;;;4997159;28;20033;-82
2021/08/15 05:13:54;;;;;;;17.30;10.68;;;537.80;2406.40;;;;;;4997091;28;20021;-83
2021/08/15 05:16:19;;;;;;;14.60;9.38;;;537.90;2406.40;;;;;;5003797;28;20053;-81
2021/08/15 05:18:45;;;;;;;13.27;9.75;;;538.00;2406.40;;;;;;5012755;28;20427;-81
2021/08/15 05:21:11;;;;;;;15.20;10.15;;;537.90;2406.40;;;;;;5012462;28;20026;-81
2021/08/15 05:23:37;;;;;;;14.23;10.32;;;537.90;2406.40;;;;;;5007852;28;20032;-82
2021/08/15 05:26:03;;;;;;;13.18;9.68;;;537.80;2406.40;;;;;;5014522;28;20030;-84
2021/08/15 05:28:28;;;;;;;16.13;10.20;;;537.60;2406.40;;;;;;4997016;28;20025;-83
2021/08/15 05:30:54;;;;;;;14.30;10.40;;;537.80;2406.40;;;;;;4996858;28;20022;-82
2021/08/15 05:33:20;;;;;;;14.60;8.90;;;538.00;2406.40;;;;;;4996584;28;20363;-83
2021/08/15 05:35:46;;;;;;;15.07;10.18;;;538.10;2406.40;;;;;;4996927;28;20037;-82
2021/08/15 05:38:12;;;;;;;16.00;10.35;;;538.10;2406.40;;;;;;4996808;28;20368;-83
2021/08/15 05:40:37;;;;;;;13.88;9.95;;;538.20;2406.40;;;;;;4996521;28;20018;-83
2021/08/15 05:43:03;;;;;;;15.13;9.45;;;538.10;2406.40;;;;;;4996838;28;20030;-83
2021/08/15 05:45:30;;;;;;;16.08;10.00;;;538.30;2406.40;;;;;;4996503;28;20072;-84
2021/08/15 05:47:55;;;;;;;12.35;9.75;;;538.50;2406.40;;;;;;4996287;28;20096;-82
2021/08/15 05:50:21;;;;;;;15.27;10.50;;;538.50;2406.40;;;;;;4996465;28;20414;-83
2021/08/15 05:52:47;;;;;;;14.48;10.88;;;538.50;2406.40;;;;;;4997123;28;20116;-81
2021/08/15 05:55:13;;;;;;;12.98;9.90;;;563.20;2432.00;;;;;;4996826;28;20080;-82
2021/08/15 05:57:39;;;;;;;14.43;10.05;;;563.30;2432.00;;;;;;4996568;28;20044;-80
2021/08/15 06:00:06;;;;;;;17.02;9.90;;;563.30;2432.00;;;;;;4996539;28;20514;-83
2021/08/15 06:02:32;;;;;;;12.25;9.60;;;563.30;2432.00;;;;;;4996678;28;20065;-84
2021/08/15 06:04:57;;;;;;;15.82;11.02;;;563.50;2432.00;;;;;;4997066;28;20022;-82
2021/08/15 06:07:23;;;;;;;11.95;8.82;;;563.60;2432.00;;;;;;4996597;28;20029;-82
2021/08/15 06:09:49;;;;;;;11.63;8.82;;;563.60;2432.00;;;;;;5017589;28;20448;-81
2021/08/15 06:12:15;;;;;;;15.90;9.18;;;563.80;2432.00;;;;;;5000437;28;20391;-83
2021/08/15 06:14:41;;;;;;;17.83;9.57;;;;;;;;;;5000302;28;20415;-83
2021/08/15 06:17:07;;;;;;;12.27;8.05;;;;;;;;;;5000371;28;20052;-82
2021/08/15 06:19:34;;;;;;;11.07;8.50;;;;;;;;;;5000527;28;20025;-82
2021/08/15 06:22:00;;;;;;;10.43;7.78;;;;;;;;;;5000222;28;20018;-82
2021/08/15 06:24:27;;;;;;;11.45;8.13;;;;;;;;;;5000069;28;20410;-82
2021/08/15 06:26:53;;;;;;;11.13;8.23;;;;;;;;;;5000158;28;20455;-81
2021/08/15 06:29:19;;;;;;;12.55;8.88;;;;;;;;;;5000339;28;20364;-83
2021/08/15 06:31:45;;;;;;;12.48;8.38;;;;;;;;;;5000103;28;20023;-83
2021/08/15 06:34:11;;;;;;;10.70;8.15;;;;;;;;;;5000025;28;20032;-82
2021/08/15 06:36:37;;;;;;;10.65;8.10;;;;;;;;;;5017375;28;20022;-81
2021/08/15 06:39:07;;;;;;;9.25;7.85;;;;;;;;;;5017175;28;20014;-82
2021/08/15 06:41:34;;;;;;;10.23;8.35;;;;;;;;;;5017254;28;20025;-82
2021/08/15 06:44:00;;;;;;;15.32;8.90;;;;;;;;;;4999794;28;20018;-82
2021/08/15 06:46:26;;;;;;;13.55;8.35;;;;;;;;;;5017805;28;20096;-82
2021/08/15 06:48:52;;;;;;;14.88;10.80;;;;;;;;;;4999396;28;20044;-81
2021/08/15 06:51:18;;;;;;;17.92;12.18;;;614.60;2432.00;;;;;;4999736;28;20026;-82
2021/08/15 06:53:44;;;;;;;15.05;10.65;;;614.50;2432.00;;;;;;4999566;28;20363;-83
2021/08/15 06:56:11;;;;;;;17.40;9.10;;;614.60;2432.00;;;;;;5016910;28;20026;-82
2021/08/15 06:58:37;;;;;;;14.30;8.98;;;;;;;;;;4999565;28;20021;-81
2021/08/15 07:01:04;;;;;;;10.48;7.50;;;;;;;;;;4999491;28;20014;-81
2021/08/15 07:03:30;;;;;;;11.25;7.68;;;;;;;;;;4998670;28;20026;-81
2021/08/15 07:05:57;;;;;;;15.13;8.25;;;;;;;;;;4999241;28;20029;-82
2021/08/15 07:08:23;;;;;;;8.80;6.53;;;640.00;2432.00;;;;;;4999177;28;20021;-82
2021/08/15 07:10:49;;;;;;;12.60;6.90;;;615.10;2432.00;;;;;;4998980;28;20156;-81
2021/08/15 07:13:19;;;;;;;13.00;9.00;;;615.30;2432.00;;;;;;4999185;28;20359;-83
2021/08/15 07:15:46;;;;;;;12.60;8.60;;;640.20;2432.00;;;;;;4999508;28;20022;-81
2021/08/15 07:18:12;;;;;;;14.43;8.40;;;640.40;2432.00;;;;;;4999076;28;20029;-83
2021/08/15 07:20:38;;;;;;;12.85;8.68;;;640.50;2432.00;;;;;;4998879;28;20049;-84
2021/08/15 07:23:04;;;;;;;13.10;9.70;;;640.50;2432.00;;;;;;4999010;28;20444;-82
2021/08/15 07:25:30;;;;;;;9.48;7.32;;;640.60;2432.00;;;;;;4998627;28;20026;-82
2021/08/15 07:27:57;;;;;;;11.75;8.00;;;640.90;2432.00;;;;;;4999173;28;20032;-84
2021/08/15 07:30:24;;;;;;;13.02;8.68;;;665.60;2432.00;;;;;;4999102;28;20022;-81
2021/08/15 07:32:56;;;;;;;14.75;11.73;;;665.70;2432.00;;;;;;5000124;28;20341;-80
2021/08/15 07:35:22;;;;;;;11.65;9.38;;;665.90;2406.40;;;;;;4999803;28;20092;-82
2021/08/15 07:37:48;;;;;;;10.75;7.30;;;665.90;2406.40;;;;;;4998964;28;20116;-82
2021/08/15 07:40:15;;;;;;;12.50;7.30;;;666.00;2380.80;;;;;;4999466;28;20434;-83
2021/08/15 07:42:41;;;;;;;10.35;8.25;;;666.20;2406.40;;;;;;4999142;28;20026;-82
2021/08/15 07:45:08;;;;;;;13.73;8.15;;;666.30;2380.80;;;;;;4999064;28;20365;-84
2021/08/15 07:47:34;;;;;;;11.35;7.13;;;666.30;2355.20;;;;;;4998330;28;20538;-83
2021/08/15 07:50:00;;;;;;;10.85;7.40;;;691.20;2355.20;;;;;;4998822;28;20034;-80
2021/08/15 07:52:26;;;;;;;12.77;9.77;;;691.40;2355.20;;;;;;4998825;28;20026;-83
2021/08/15 07:54:51;;;;;;;11.55;8.23;;;691.60;2355.20;;;;;;4998952;28;20026;-81
2021/08/15 07:57:19;;;;;;;13.95;7.95;;;691.80;2304.00;;;;;;4998769;28;20026;-81
2021/08/15 07:59:44;;;;;;;12.93;7.85;;;691.90;2278.40;;;;;;4998851;28;20104;-83
2021/08/15 08:02:10;;;;;;;12.63;8.63;;;692.10;2278.40;;;;;;4998375;28;20052;-81
2021/08/15 08:04:37;;;;;;;11.52;8.30;;;692.10;2252.80;;;;;;4999030;28;20026;-82
2021/08/15 08:07:04;;;;;;;15.70;8.40;;;716.90;2252.80;;;;;;4998326;28;20117;-81
2021/08/15 08:09:30;;;;;;;10.77;7.95;;;717.10;2252.80;;;;;;4998543;28;20022;-82
2021/08/15 08:11:56;;;;;;;13.20;7.95;;;717.10;2278.40;;;;;;4998548;28;20021;-80
2021/08/15 08:14:23;;;;;;;13.00;7.80;;;717.30;2252.80;;;;;;4998537;28;20578;-84
2021/08/15 08:16:49;;;;;;;11.32;8.10;;;717.50;2252.80;;;;;;4998585;28;20460;-82
2021/08/15 08:19:15;;;;;;;10.82;7.30;;;717.20;2227.20;;;;;;5015664;28;20084;-80
2021/08/15 08:21:40;;;;;;;11.82;7.13;;;717.50;2227.20;;;;;;5015378;28;20463;-82
2021/08/15 08:24:08;;;;;;;17.05;11.80;;;717.60;2201.60;;;;;;4998382;28;20460;-82
2021/08/15 08:26:34;;;;;;;13.88;10.32;;;742.40;2227.20;;;;;;4999328;28;20375;-81
2021/08/15 08:29:00;;;;;;;12.00;7.95;;;742.50;2201.60;;;;;;4997613;28;20467;-80
2021/08/15 08:31:27;;;;;;;16.58;12.23;;;742.60;2176.00;;;;;;5014596;28;20029;-79
2021/08/15 08:33:53;;;;;;;13.57;9.80;;;742.80;2176.00;;;;;;4997449;28;20345;-80
2021/08/15 08:36:19;;;;;;;13.48;8.27;;;743.00;2176.00;;;;;;5029384;28;20477;-81
2021/08/15 08:38:45;;;;;;;10.60;8.13;;;743.10;2150.40;;;;;;5017250;28;20024;-80
2021/08/15 08:41:14;;;;;;;11.05;7.53;;;743.30;2124.80;;;;;;5017074;28;20025;-82
2021/08/15 08:43:41;;;;;;;11.52;6.88;;;743.30;2099.20;;;;;;5035296;28;20032;-80
2021/08/15 08:46:09;;;;;;;10.55;7.18;;;768.10;2099.20;;;;;;5016998;28;20080;-80
2021/08/15 08:48:35;;;;;;;13.52;8.10;;;768.10;2073.60;;;;;;5009154;28;20038;-81
2021/08/15 08:51:02;;;;;;;8.95;7.38;;;768.20;2099.20;;;;;;5010770;28;20268;-81
2021/08/15 08:53:29;;;;;;;7.57;6.43;;;768.30;2073.60;;;;;;5007513;28;20091;-82
2021/08/15 08:55:55;;;;;;;36.13;32.30;;;768.70;2048.00;;;;;;5025786;28;20021;-81
2021/08/15 08:58:21;;;;;;;15.25;12.15;;;768.60;2048.00;;;;;;5005179;28;20022;-80
2021/08/15 09:00:49;;;;;;;9.43;7.15;;;768.90;2048.00;;;;;;5006010;28;20056;-81
2021/08/15 09:03:15;;;;;;;9.35;5.68;;;768.90;1996.80;;;;;;5007087;28;20439;-80
2021/08/15 09:05:49;;;;;;;6.97;5.90;;;768.60;2022.40;;;;;;5024383;28;20088;-83
2021/08/15 09:08:27;;;;;;;10.50;6.78;;;768.70;2022.40;;;;;;5000332;28;20041;-80
2021/08/15 09:10:53;;;;;;;9.25;6.55;;;768.90;2022.40;;;;;;4996690;28;20029;-81
2021/08/15 09:13:26;;;;;;;9.52;7.60;;;768.80;2022.40;;;;;;4996838;28;20022;-79
2021/08/15 09:15:56;;;;;;;15.13;7.88;;;793.70;2048.00;;;;;;4996725;28;20065;-80
2021/08/15 09:18:33;;;;;;;7.47;5.78;;;793.60;2048.00;;;;;;4996688;28;20037;-82
2021/08/15 09:20:59;;;;;;;8.23;6.43;;;794.30;1971.20;;;;;;4996574;28;20112;-80
2021/08/15 09:23:36;;;;;;;13.18;8.52;;;794.30;1945.60;;;;;;4996554;28;20095;-80
2021/08/15 09:26:29;;;;;;;8.02;6.93;;;794.20;1971.20;;;;;;5002378;28;20474;-81
2021/08/15 09:28:54;;;;;;;;;;;794.50;1945.60;;;;;;4995949;28;20463;-80
2021/08/15 09:31:33;;;;;;;17.23;13.55;;;794.50;1945.60;;;;;;5015540;28;19948;-81
2021/08/15 09:34:01;;;;;;;17.00;11.43;;;819.50;1920.00;;;;;;4996518;28;20025;-80
2021/08/15 09:36:33;;;;;;;9.15;7.72;;;819.70;1894.40;;;;;;5014182;28;20032;-79
2021/08/15 09:39:05;;;;;;;13.35;9.00;;;819.80;1868.80;;;;;;5013535;28;20048;-81
2021/08/15 09:41:39;;;;;;;8.48;6.72;;;819.90;1843.20;;;;;;4996590;28;20540;-83
2021/08/15 09:44:21;;;;;;;6.75;5.32;;;819.90;1843.20;;;;;;5006493;28;20644;-82
2021/08/15 09:46:56;;;;;;;;;;;844.80;1843.20;;;;;;5002363;28;20435;-82
2021/08/15 09:49:22;;;;;;;10.15;6.25;;;844.90;1792.00;;;;;;5010586;28;20397;-83
2021/08/15 09:51:47;;;;;;;7.82;6.10;;;845.20;1740.80;;;;;;5012409;28;20050;-82
2021/08/15 09:54:18;;;;;;;12.75;9.73;;;845.20;1664.00;;;;;;5013925;28;20037;-82
2021/08/15 09:56:44;;;;;;;7.57;5.20;;;845.40;1664.00;;;;;;5013236;28;20033;-82
2021/08/15 09:59:22;;;;;;;10.52;6.07;;;845.70;1587.20;;;;;;5013045;28;20056;-82
2021/08/15 10:01:49;;;;;;;8.77;5.85;;;870.50;1536.00;;;;;;5010361;28;20468;-82
2021/08/15 10:04:17;;;;;;;12.27;7.95;;;870.50;1536.00;;;;;;5014124;28;20117;-81
2021/08/15 10:06:45;;;;;;;9.43;5.20;;;870.70;1561.60;;;;;;5013525;28;20387;-81
2021/08/15 10:09:11;;;;;;;11.40;8.95;;;870.90;1536.00;;;;;;5014277;28;20018;-82
2021/08/15 10:11:39;;;;;;;9.63;6.18;;;871.10;1536.00;;;;;;5013707;28;20021;-80
2021/08/15 10:14:07;;;;;;;8.00;5.30;;;871.20;1536.00;;;;;;5012103;28;20025;-81
2021/08/15 10:16:55;;;;;;;7.95;5.03;;;871.30;1510.40;;;;;;5018209;28;20033;-81
2021/08/15 10:19:43;;;;;;;7.53;5.90;;;871.20;1510.40;;;;;;5029989;28;20054;-81
2021/08/15 10:22:10;;;;;;;10.65;7.05;;;871.20;1510.40;;;;;;5020945;28;20026;-82
2021/08/15 10:24:42;;;;;;;27.70;24.83;;;896.10;1484.80;;;;;;5019688;28;20122;-83
2021/08/15 10:27:08;;;;;;;;;;;896.50;1484.80;;;;;;5013404;28;20026;-82
2021/08/15 10:29:37;;;;;;;7.38;6.00;;;896.70;1484.80;;;;;;5012854;28;19943;-83
2021/08/15 10:32:17;;;;;;;7.43;5.50;;;896.30;1433.60;;;;;;5013655;28;20045;-82
2021/08/15 10:34:52;;;;;;;6.97;4.97;;;896.10;1408.00;;;;;;5011858;28;20992;-82
2021/08/15 10:37:38;;;;;;;9.05;6.63;;;896.40;1433.60;;;;;;5013691;28;20097;-82
2021/08/15 10:40:04;;;;;;;10.18;6.40;;;896.90;1408.00;;;;;;4993554;28;20025;-81
2021/08/15 10:42:39;;;;;;;7.93;5.53;;;921.90;1433.60;;;;;;4995261;28;20014;-81
2021/08/15 10:45:07;;;;;;;12.73;8.38;;;922.00;1408.00;;;;;;5011897;28;20038;-82
2021/08/15 10:47:34;;;;;;;9.20;7.13;;;922.20;1382.40;;;;;;5014773;28;20042;-81
2021/08/15 10:50:03;;;;;;;13.95;7.25;;;922.40;1382.40;;;;;;5015369;28;20014;-80
2021/08/15 10:52:39;;;;;;;7.75;5.30;;;922.50;1356.80;;;;;;5015119;28;20521;-81
2021/08/15 10:55:39;;;;;;;10.13;6.82;;;922.40;1331.20;;;;;;5016235;28;20079;-80
2021/08/15 10:58:25;;;;;;;7.22;6.10;;;922.50;1356.80;;;;;;5006255;28;20044;-80
2021/08/15 11:00:51;;;;;;;7.40;5.60;;;947.40;1356.80;;;;;;4998987;28;20025;-80
2021/08/15 11:03:18;;;;;;;8.27;5.40;;;922.40;1331.20;;;;;;5014107;28;20029;-79
2021/08/15 11:05:44;;;;;;;10.60;6.78;;;922.00;1305.60;;;;;;5051483;28;20021;-81
2021/08/15 11:08:46;;;;;;;14.63;10.48;;;922.00;1356.80;;;;;;5017999;28;20028;-79
2021/08/15 11:11:19;;;;;;;11.00;8.15;;;947.20;1331.20;;;;;;4975354;28;20034;-79
2021/08/15 11:13:45;;;;;;;9.52;7.40;;;947.70;1331.20;;;;;;5026516;28;20029;-80
2021/08/15 11:16:25;;;;;;;7.93;6.40;;;947.20;1305.60;;;;;;5018332;28;20025;-80
2021/08/15 11:19:10;;;;;;;5.73;5.10;;;922.50;1305.60;;;;;;5018626;28;20021;-80
2021/08/15 11:22:14;;;;;;;6.07;4.97;;;922.30;1280.00;;;;;;5017300;28;20367;-80
2021/08/15 11:24:49;;;;;;;9.10;6.57;;;947.30;1280.00;;;;;;5017333;28;20025;-80
2021/08/15 11:27:39;;;;;;;7.95;6.25;;;947.90;1305.60;;;;;;5017795;28;20017;-81
2021/08/15 11:30:18;;;;;;;13.15;6.30;;;948.10;1254.40;;;;;;5035548;28;20028;-79
2021/08/15 11:32:52;;;;;;;7.60;6.32;;;948.10;1254.40;;;;;;5018183;28;20025;-80
2021/08/15 11:35:18;;;;;;;11.20;6.82;;;972.90;1254.40;;;;;;5016720;28;20387;-81
2021/08/15 11:38:06;;;;;;;10.80;5.85;;;973.20;1280.00;;;;;;5016866;28;20013;-81
2021/08/15 11:40:37;;;;;;;10.30;7.05;;;973.00;1228.80;;;;;;5017044;28;20025;-81
2021/08/15 11:43:08;;;;;;;;;;;973.10;1254.40;;;;;;5016914;28;20056;-81
2021/08/15 11:45:40;;;;;;;7.72;6.47;;;973.30;1254.40;;;;;;5016818;28;19909;-81
2021/08/15 11:48:15;;;;;;;8.68;6.63;;;973.70;1228.80;;;;;;5023238;28;20053;-82
2021/08/15 11:50:48;;;;;;;8.60;7.00;;;973.40;1228.80;;;;;;5031908;28;20463;-81
2021/08/15 11:53:33;;;;;;;11.32;7.53;;;973.70;1203.20;;;;;;5034492;28;20038;-79
2021/08/15 11:56:14;;;;;;;8.30;6.13;;;973.70;1228.80;;;;;;5032975;28;20120;-82
2021/08/15 11:58:50;;;;;;;7.63;6.00;;;998.40;1228.80;;;;;;5031052;28;20455;-81
2021/08/15 12:01:21;;;;;;;6.43;4.93;;;998.60;1203.20;;;;;;5058361;28;20101;-78
2021/08/15 12:04:03;;;;;;;10.70;5.60;;;998.70;1177.60;;;;;;5057625;28;20018;-78
2021/08/15 12:06:39;;;;;;;8.00;5.22;;;998.70;1203.20;;;;;;5056981;28;20021;-81
2021/08/15 12:09:17;;;;;;;6.28;4.57;;;998.70;1228.80;;;;;;5058041;28;20021;-82
2021/08/15 12:11:54;;;;;;;7.03;4.63;;;973.70;1152.00;;;;;;5057834;28;20093;-82
2021/08/15 12:14:20;;;;;;;8.63;5.05;;;973.70;1203.20;;;;;;5040690;28;20033;-82
2021/08/15 12:16:52;;;;;;;9.40;7.50;;;998.40;1228.80;;;;;;5036365;28;20048;-81
2021/08/15 12:19:23;;;;;;;8.10;6.82;;;998.80;1203.20;;;;;;5036827;28;20025;-82
2021/08/15 12:21:49;;;;;;;7.70;5.57;;;999.00;1152.00;;;;;;5035605;28;20067;-81
2021/08/15 12:24:19;;;;;;;9.02;6.32;;;998.70;1152.00;;;;;;5036814;28;20065;-81